Time;durP1;ratioP1;P1;durP2;ratioP2;P2;SDS_P1;SDS_P2;PMS_P1;PMS_P2;Temp;Humidity;BMP_temperature;BMP_pressure;BME280_temperature;BME280_humidity;BME280_pressure;Samples;Min_cycle;Max_cycle;Signal;HPM_P1;HPM_P2
2023/01/13 00:01:54;;;;;;;;;;;;;;;18.86;48.33;100147.47;5111593;28;20427;-52
2023/01/13 00:04:20;;;;;;;;;;;;;;;18.85;48.39;100140.31;5118183;28;19974;-53
2023/01/13 00:06:45;;;;;;;;;;;;;;;18.85;48.20;100140.31;5130850;28;20415;-53
2023/01/13 00:09:11;;;;;;;;;;;;;;;18.85;48.02;100134.78;5132205;28;19977;-53
2023/01/13 00:11:36;;;;;;;;;;;;;;;18.84;48.19;100116.59;5132110;28;20010;-53
2023/01/13 00:14:02;;;;;;;;;;;;;;;18.85;48.04;100121.00;5131721;28;19974;-53
2023/01/13 00:16:28;;;;;;;;;;;;;;;18.84;48.22;100116.59;5131499;28;20462;-53
2023/01/13 00:18:53;;;;;;;;;;;;;;;18.84;48.14;100113.84;5131763;28;19924;-53
2023/01/13 00:21:20;;;;;;;;;;;;;;;18.84;48.20;100103.63;5131934;28;20018;-53
2023/01/13 00:23:46;;;;;;;;;;;;;;;18.84;48.19;100122.94;5113179;28;20014;-52
2023/01/13 00:26:15;;;;;;;;;;;;;;;18.84;48.08;100113.84;5113264;28;19959;-52
2023/01/13 00:28:41;;;;;;;;;;;;;;;18.84;48.23;100105.56;5112680;28;20370;-52
2023/01/13 00:31:07;;;;;;;;;;;;;;;18.84;48.11;100113.84;5131415;28;20014;-53
2023/01/13 00:33:33;;;;;;;;;;;;;;;18.85;48.42;100129.28;5131712;28;19931;-53
2023/01/13 00:35:59;;;;;;;;;;;;;;;18.84;48.15;100131.22;5131659;28;19931;-53
2023/01/13 00:38:24;;;;;;;;;;;;;;;18.84;48.31;100135.91;5112740;28;19930;-53
2023/01/13 00:40:54;;;;;;;;;;;;;;;18.83;48.15;100114.97;5130590;28;20409;-53
2023/01/13 00:43:22;;;;;;;;;;;;;;;18.84;48.14;100119.38;5131455;28;19982;-52
2023/01/13 00:45:50;;;;;;;;;;;;;;;18.84;48.12;100119.38;5131540;28;19927;-53
2023/01/13 00:48:17;;;;;;;;;;;;;;;18.83;48.41;100121.31;5131217;28;20052;-53
2023/01/13 00:50:43;;;;;;;;;;;;;;;18.83;48.30;100112.22;5131151;28;19934;-52
2023/01/13 00:53:09;;;;;;;;;;;;;;;18.83;48.11;100099.25;5131189;28;19924;-53
2023/01/13 00:55:34;;;;;;;;;;;;;;;18.83;48.40;100114.97;5130687;27;20388;-53
2023/01/13 00:58:02;;;;;;;;;;;;;;;18.82;48.22;100125.16;5112355;28;20386;-53
2023/01/13 01:00:28;;;;;;;;;;;;;;;18.82;48.33;100127.91;5121973;27;20389;-51
2023/01/13 01:02:54;;;;;;;;;;;;;;;18.83;48.27;100112.22;5151828;27;20346;-53
2023/01/13 01:05:19;;;;;;;;;;;;;;;18.82;48.36;100122.41;5152007;27;19923;-52
2023/01/13 01:07:45;;;;;;;;;;;;;;;18.82;48.50;100113.31;5142279;27;20040;-52
2023/01/13 01:10:11;;;;;;;;;;;;;;;18.83;48.09;100095.66;5131108;28;19978;-53
2023/01/13 01:12:36;;;;;;;;;;;;;;;18.83;48.10;100084.63;5130963;28;20430;-53
2023/01/13 01:15:04;;;;;;;;;;;;;;;18.82;48.42;100091.25;5130754;28;20297;-53
2023/01/13 01:17:30;;;;;;;;;;;;;;;18.83;48.17;100107.50;5130752;28;20139;-53
2023/01/13 01:19:56;;;;;;;;;;;;;;;18.83;48.46;100134.28;5130558;28;20260;-53
2023/01/13 01:22:21;;;;;;;;;;;;;;;18.83;48.33;100124.06;5130779;28;19978;-54
2023/01/13 01:24:47;;;;;;;;;;;;;;;18.82;48.16;100127.91;5130446;28;20206;-53
2023/01/13 01:27:12;;;;;;;;;;;;;;;18.82;48.48;100122.41;5130472;28;20030;-52
2023/01/13 01:29:38;;;;;;;;;;;;;;;18.82;48.13;100116.88;5130074;28;19923;-54
2023/01/13 01:32:04;;;;;;;;;;;;;;;18.82;48.22;100094.00;5130664;28;19967;-53
2023/01/13 01:34:29;;;;;;;;;;;;;;;18.82;48.33;100107.78;5130543;28;19966;-52
2023/01/13 01:36:55;;;;;;;;;;;;;;;18.82;48.48;100089.31;5130453;28;20350;-52
2023/01/13 01:39:21;;;;;;;;;;;;;;;18.82;48.21;100108.59;5130291;28;20363;-53
2023/01/13 01:44:49;;;;;;;;;;;;;;;18.81;48.32;100115.25;5096765;28;19984;-54
2023/01/13 01:47:16;;;;;;;;;;;;;;;18.81;48.50;100134.56;5101293;28;20050;-53
2023/01/13 01:49:41;;;;;;;;;;;;;;;18.81;48.21;100140.06;5130176;28;20140;-53
2023/01/13 01:52:09;;;;;;;;;;;;;;;18.82;48.26;100150.00;5130463;28;20461;-52
2023/01/13 01:54:38;;;;;;;;;;;;;;;18.80;48.52;100141.19;5129834;27;20040;-53
2023/01/13 01:57:03;;;;;;;;;;;;;;;18.82;48.49;100143.66;5130196;28;20431;-53
2023/01/13 01:59:29;;;;;;;;;;;;;;;18.82;48.23;100136.19;5127557;28;20006;-52
2023/01/13 02:01:54;;;;;;;;;;;;;;;18.82;48.33;100132.63;5109451;28;20056;-53
2023/01/13 02:04:22;;;;;;;;;;;;;;;18.82;48.25;100140.91;5109495;28;19963;-52
2023/01/13 02:06:47;;;;;;;;;;;;;;;18.81;48.38;100137.31;5110688;28;19978;-53
2023/01/13 02:09:13;;;;;;;;;;;;;;;18.82;48.51;100151.94;5129282;28;19978;-53
2023/01/13 02:14:25;;;;;;;;;;;;;;;18.82;48.47;100143.66;5114626;28;20000;-53
2023/01/13 02:16:53;;;;;;;;;;;;;;;18.80;48.53;100147.53;5129862;28;20067;-52
2023/01/13 02:19:37;;;;;;;;;;;;;;;18.81;48.45;100148.34;5129612;28;20006;-53
2023/01/13 02:22:09;;;;;;;;;;;;;;;18.81;48.19;100148.34;5128042;28;20011;-53
2023/01/13 02:24:54;;;;;;;;;;;;;;;18.81;48.26;100153.88;5111252;28;19962;-53
2023/01/13 02:27:25;;;;;;;;;;;;;;;18.80;48.53;100141.19;5129985;28;19930;-54
2023/01/13 02:33:09;;;;;;;;;;;;;;;18.80;48.27;100139.25;5114367;28;19930;-53
2023/01/13 02:35:37;;;;;;;;;;;;;;;18.81;48.52;100140.06;5129957;28;19974;-53
2023/01/13 02:38:03;;;;;;;;;;;;;;;18.80;48.38;100138.44;5121889;28;19979;-52
2023/01/13 02:40:31;;;;;;;;;;;;;;;18.81;48.24;100134.56;5129393;28;19985;-53
2023/01/13 02:45:48;;;;;;;;;;;;;;;18.80;48.20;100130.16;5113911;28;20362;-53
2023/01/13 02:48:13;;;;;;;;;;;;;;;18.79;48.61;100132.13;5129604;28;19928;-53
2023/01/13 02:50:47;;;;;;;;;;;;;;;18.80;48.26;100135.69;5129161;28;19966;-52
2023/01/13 02:53:16;;;;;;;;;;;;;;;18.81;48.45;100126.28;5129252;28;20382;-52
2023/01/13 02:55:43;;;;;;;;;;;;;;;18.80;48.08;100119.94;5129242;27;20002;-52
2023/01/13 02:58:09;;;;;;;;;;;;;;;18.79;48.54;100118.31;5110745;28;19970;-53
2023/01/13 03:00:35;;;;;;;;;;;;;;;18.80;48.36;100131.00;5128907;28;20002;-53
2023/01/13 03:03:01;;;;;;;;;;;;;;;18.80;48.41;100119.94;5111219;28;19934;-52
2023/01/13 03:05:26;;;;;;;;;;;;;;;18.80;48.54;100133.75;5129607;28;19963;-53
2023/01/13 03:07:55;;;;;;;;;;;;;;;18.80;48.53;100132.94;5128948;28;20128;-53
2023/01/13 03:10:43;;;;;;;;;;;;;;;18.79;48.40;100123.03;5129528;28;21289;-53
2023/01/13 03:13:25;;;;;;;;;;;;;;;18.80;48.27;100122.72;5114172;28;20431;-53
2023/01/13 03:16:09;;;;;;;;;;;;;;;18.80;48.23;100127.41;5129298;28;19928;-53
2023/01/13 03:18:55;;;;;;;;;;;;;;;18.79;48.54;100118.31;5128675;28;19923;-52
2023/01/13 03:21:29;;;;;;;;;;;;;;;18.80;48.59;100110.88;5113494;28;20459;-52
2023/01/13 03:23:58;;;;;;;;;;;;;;;18.79;48.29;100110.03;5110898;28;20007;-51
2023/01/13 03:26:30;;;;;;;;;;;;;;;18.80;48.28;100116.38;5132293;28;19963;-53
2023/01/13 03:28:58;;;;;;;;;;;;;;;18.79;48.33;100112.81;5113230;28;19963;-53
2023/01/13 03:31:25;;;;;;;;;;;;;;;18.80;48.26;100127.41;5132442;28;20463;-53
2023/01/13 03:33:54;;;;;;;;;;;;;;;18.79;48.26;100128.53;5114374;28;19927;-60
2023/01/13 03:36:21;;;;;;;;;;;;;;;18.80;48.59;100130.16;5136918;27;19962;-53
2023/01/13 03:38:51;;;;;;;;;;;;;;;18.79;48.30;100126.59;5116610;28;19950;-53
2023/01/13 03:41:18;;;;;;;;;;;;;;;18.80;48.61;100119.94;5132626;28;19927;-53
2023/01/13 03:46:34;;;;;;;;;;;;;;;18.80;48.46;100110.88;5117106;28;19923;-52
2023/01/13 03:49:01;;;;;;;;;;;;;;;18.79;48.25;100112.81;5132232;28;20010;-52
2023/01/13 03:51:27;;;;;;;;;;;;;;;18.80;48.41;100124.66;5132452;28;20367;-50
2023/01/13 03:53:55;;;;;;;;;;;;;;;18.79;48.27;100115.56;5131993;27;19927;-53
2023/01/13 03:56:24;;;;;;;;;;;;;;;18.78;48.59;100111.16;5132138;28;19923;-53
2023/01/13 03:58:50;;;;;;;;;;;;;;;18.79;48.29;100117.50;5131412;28;19928;-53
2023/01/13 04:01:35;;;;;;;;;;;;;;;18.79;48.28;100115.56;5148971;27;19930;-53
2023/01/13 04:04:03;;;;;;;;;;;;;;;18.78;48.39;100111.16;5137341;27;19929;-52
2023/01/13 04:06:36;;;;;;;;;;;;;;;18.79;48.50;100129.34;5134214;27;19927;-52
2023/01/13 04:09:08;;;;;;;;;;;;;;;18.79;48.35;100117.50;5132309;27;20378;-53
2023/01/13 04:11:36;;;;;;;;;;;;;;;18.78;48.32;100122.19;5132034;28;19931;-53
2023/01/13 04:14:02;;;;;;;;;;;;;;;18.78;48.29;100126.88;5113606;28;19966;-53
2023/01/13 04:16:27;;;;;;;;;;;;;;;18.79;48.40;100131.28;5113229;28;19924;-52
2023/01/13 04:18:53;;;;;;;;;;;;;;;18.78;48.34;100116.69;5131735;28;19931;-52
2023/01/13 04:21:19;;;;;;;;;;;;;;;18.78;48.35;100124.97;5131579;28;19950;-52
2023/01/13 04:23:44;;;;;;;;;;;;;;;18.79;48.30;100128.53;5130996;28;19980;-53
2023/01/13 04:26:10;;;;;;;;;;;;;;;18.78;48.60;100122.19;5131919;28;19962;-53
2023/01/13 04:28:35;;;;;;;;;;;;;;;18.78;48.46;100124.97;5131576;28;19965;-53
2023/01/13 04:31:01;;;;;;;;;;;;;;;18.78;48.35;100121.34;5131132;28;20407;-53
2023/01/13 04:33:27;;;;;;;;;;;;;;;18.79;48.33;100128.53;5131678;28;20370;-53
2023/01/13 04:35:52;;;;;;;;;;;;;;;18.79;48.49;100131.28;5131440;27;19935;-53
2023/01/13 04:38:18;;;;;;;;;;;;;;;18.79;48.61;100128.53;5131215;28;20274;-53
2023/01/13 04:40:44;;;;;;;;;;;;;;;18.78;48.46;100130.47;5131223;28;20278;-53
2023/01/13 04:43:09;;;;;;;;;;;;;;;18.78;48.28;100124.13;5131415;28;20375;-53
2023/01/13 04:45:35;;;;;;;;;;;;;;;18.78;48.30;100127.72;5131578;28;19927;-53
2023/01/13 04:48:01;;;;;;;;;;;;;;;18.78;48.61;100133.25;5131345;28;20328;-53
2023/01/13 04:50:26;;;;;;;;;;;;;;;18.78;48.56;100132.38;5131395;28;19924;-53
2023/01/13 04:52:52;;;;;;;;;;;;;;;18.78;48.28;100149.78;5112810;28;20003;-52
2023/01/13 04:55:18;;;;;;;;;;;;;;;18.79;48.63;100156.13;5130469;27;19923;-53
2023/01/13 04:57:44;;;;;;;;;;;;;;;18.79;48.60;100156.13;5131076;28;19928;-52
2023/01/13 05:00:10;;;;;;;;;;;;;;;18.78;48.56;100133.25;5112344;28;20076;-52
2023/01/13 05:02:36;;;;;;;;;;;;;;;18.78;48.59;100111.16;5112604;28;19934;-52
2023/01/13 05:05:01;;;;;;;;;;;;;;;18.78;48.33;100104.81;5130532;28;19924;-53
2023/01/13 05:07:27;;;;;;;;;;;;;;;18.77;48.53;100115.03;5131150;28;19923;-53
2023/01/13 05:09:53;;;;;;;;;;;;;;;18.78;48.30;100121.34;5130622;28;19934;-53
2023/01/13 05:17:49;;;;;;;;;;;;;;;18.78;48.56;100121.34;5115283;28;20002;-53
2023/01/13 05:20:15;;;;;;;;;;;;;;;18.78;48.27;100132.38;5130510;28;19923;-53
2023/01/13 05:25:27;;;;;;;;;;;;;;;18.78;48.62;100127.72;5114719;28;19958;-52
2023/01/13 05:27:54;;;;;;;;;;;;;;;18.77;48.52;100123.31;5130637;28;19927;-52
2023/01/13 05:30:20;;;;;;;;;;;;;;;18.77;48.64;100112.25;5130333;28;19924;-52
2023/01/13 05:32:46;;;;;;;;;;;;;;;18.77;48.57;100114.22;5112164;28;19927;-52
2023/01/13 05:35:11;;;;;;;;;;;;;;;18.78;48.48;100132.38;5131614;27;19935;-52
2023/01/13 05:37:37;;;;;;;;;;;;;;;18.77;48.29;100137.09;5124428;28;20286;-52
2023/01/13 05:43:31;;;;;;;;;;;;;;;18.77;48.31;100137.09;5115067;28;19974;-52
2023/01/13 05:45:45;;;;;;;;;;;;;;;18.77;48.44;100136.28;5115149;28;19928;-54
2023/01/13 05:48:11;;;;;;;;;;;;;;;18.77;48.46;100148.13;5129723;27;20480;-53
2023/01/13 05:50:37;;;;;;;;;;;;;;;18.77;48.62;100145.38;5130502;28;20251;-52
2023/01/13 05:53:03;;;;;;;;;;;;;;;18.78;48.51;100148.94;5129539;28;19934;-53
2023/01/13 05:55:28;;;;;;;;;;;;;;;18.78;48.28;100144.28;5111549;28;19924;-52
2023/01/13 05:57:54;;;;;;;;;;;;;;;18.77;48.56;100144.56;5130130;28;20333;-52
2023/01/13 06:00:20;;;;;;;;;;;;;;;18.77;48.61;100142.59;5124153;28;19938;-54
2023/01/13 06:02:45;;;;;;;;;;;;;;;18.77;48.42;100144.56;5129176;27;20256;-53
2023/01/13 06:05:11;;;;;;;;;;;;;;;18.76;48.31;100143.72;5129655;27;20286;-52
2023/01/13 06:07:36;;;;;;;;;;;;;;;18.77;48.43;100153.63;5129075;27;19924;-52
2023/01/13 06:10:02;;;;;;;;;;;;;;;18.77;48.45;100153.63;5129725;28;19972;-53
2023/01/13 06:12:28;;;;;;;;;;;;;;;18.77;48.57;100159.16;5128587;27;19966;-53
2023/01/13 06:14:53;;;;;;;;;;;;;;;18.77;48.27;100164.69;5129231;27;19938;-53
2023/01/13 06:17:19;;;;;;;;;;;;;;;18.77;48.62;100152.81;5129538;28;19934;-53
2023/01/13 06:19:44;;;;;;;;;;;;;;;18.78;48.43;100159.97;5125991;27;19923;-53
2023/01/13 06:22:18;;;;;;;;;;;;;;;18.76;48.54;100157.53;5128899;28;19956;-53
2023/01/13 06:24:44;;;;;;;;;;;;;;;18.77;48.54;100156.41;5109824;28;20375;-53
2023/01/13 06:27:10;;;;;;;;;;;;;;;18.77;48.46;100172.94;5110248;28;19963;-52
2023/01/13 06:29:36;;;;;;;;;;;;;;;18.76;48.58;100171.31;5128254;27;19935;-51
2023/01/13 06:32:02;;;;;;;;;;;;;;;18.77;48.62;100174.88;5128598;28;19938;-51
2023/01/13 06:34:28;;;;;;;;;;;;;;;18.77;48.38;100177.66;5129460;28;19927;-52
2023/01/13 06:36:53;;;;;;;;;;;;;;;18.77;48.29;100177.66;5128343;27;20326;-53
2023/01/13 06:39:20;;;;;;;;;;;;;;;18.77;48.45;100181.22;5129136;28;19927;-53
2023/01/13 06:44:32;;;;;;;;;;;;;;;18.85;48.51;100179.75;5113072;28;20296;-52
2023/01/13 06:46:57;;;;;;;;;;;;;;;18.83;48.66;100173.72;5128780;28;19958;-53
2023/01/13 06:49:23;;;;;;;;;;;;;;;18.81;48.96;100178.69;5127404;27;19932;-53
2023/01/13 06:51:49;;;;;;;;;;;;;;;18.82;49.03;100174.81;5128385;28;20358;-53
2023/01/13 06:54:14;;;;;;;;;;;;;;;18.81;48.96;100175.94;5125227;27;19923;-53
2023/01/13 06:56:40;;;;;;;;;;;;;;;18.82;48.94;100177.56;5125549;27;20367;-51
2023/01/13 06:59:05;;;;;;;;;;;;;;;18.82;48.70;100176.75;5110231;28;20378;-54
2023/01/13 07:01:31;;;;;;;;;;;;;;;18.82;48.68;100185.84;5129036;27;19950;-52
2023/01/13 07:03:57;;;;;;;;;;;;;;;18.82;48.84;100180.34;5131145;28;19949;-54
2023/01/13 07:06:22;;;;;;;;;;;;;;;18.82;48.92;100185.84;5128051;27;19931;-53
2023/01/13 07:08:48;;;;;;;;;;;;;;;18.83;48.82;100181.19;5121872;28;20141;-54
2023/01/13 07:11:14;;;;;;;;;;;;;;;18.83;48.82;100192.22;5125145;28;20384;-53
2023/01/13 07:16:26;;;;;;;;;;;;;;;18.83;48.63;100179.25;5113255;28;19989;-52
2023/01/13 07:18:52;;;;;;;;;;;;;;;18.85;48.74;100181.69;5125856;28;19931;-54
2023/01/13 07:21:18;;;;;;;;;;;;;;;18.85;48.72;100173.41;5126707;27;19932;-55
2023/01/13 07:23:44;;;;;;;;;;;;;;;18.84;48.56;100175.34;5121883;27;19962;-53
2023/01/13 07:26:10;;;;;;;;;;;;;;;18.86;48.74;100186.09;5126747;27;19947;-54
2023/01/13 07:28:36;;;;;;;;;;;;;;;18.85;48.81;100193.53;5103408;28;19984;-52
2023/01/13 07:31:01;;;;;;;;;;;;;;;18.85;48.82;100190.78;5099316;27;19927;-52
2023/01/13 07:33:31;;;;;;;;;;;;;;;18.86;48.61;100199.88;5103307;28;20405;-53
2023/01/13 07:35:58;;;;;;;;;;;;;;;18.85;48.82;100201.81;5107658;28;20034;-52
2023/01/13 07:38:23;;;;;;;;;;;;;;;18.88;48.70;100211.47;5104998;27;19938;-53
2023/01/13 07:40:49;;;;;;;;;;;;;;;18.87;48.43;100204.28;5103828;27;20294;-52
2023/01/13 07:43:46;;;;;;;;;;;;;;;18.87;48.78;100207.88;5123097;27;20365;-53
2023/01/13 07:46:01;;;;;;;;;;;;;;;18.87;48.76;100218.06;5107107;27;20010;-51
2023/01/13 07:48:27;;;;;;;;;;;;;;;18.87;48.76;100218.91;5138317;27;19927;-51
2023/01/13 07:50:53;;;;;;;;;;;;;;;18.88;48.37;100223.31;5108778;27;19939;-53
2023/01/13 07:53:19;;;;;;;;;;;;;;;18.88;48.25;100215.03;5123442;27;19930;-51
2023/01/13 07:55:44;;;;;;;;;;;;;;;18.88;48.51;100211.47;5126515;27;19934;-52
2023/01/13 07:58:10;;;;;;;;;;;;;;;18.86;47.84;100211.72;5124117;27;19923;-52
2023/01/13 08:00:36;;;;;;;;;;;;;;;18.88;48.51;100214.22;5125720;27;20397;-53
2023/01/13 08:03:01;;;;;;;;;;;;;;;18.87;48.47;100210.63;5124650;28;20236;-52
2023/01/13 08:05:27;;;;;;;;;;;;;;;18.87;48.08;100216.16;5114880;27;19938;-52
2023/01/13 08:07:53;;;;;;;;;;;;;;;18.87;48.09;100210.63;5121132;27;19928;-53
2023/01/13 08:10:18;;;;;;;;;;;;;;;18.88;48.13;100217.78;5120665;27;20138;-53
2023/01/13 08:15:31;;;;;;;;;;;;;;;18.87;48.35;100227.19;5097325;27;19928;-52
2023/01/13 08:17:58;;;;;;;;;;;;;;;18.86;48.64;100236.56;5097899;27;19985;-53
2023/01/13 08:20:23;;;;;;;;;;;;;;;18.86;47.78;100231.03;5128909;27;19923;-52
2023/01/13 08:22:49;;;;;;;;;;;;;;;18.88;48.42;100230.78;5121945;27;20399;-53
2023/01/13 08:25:16;;;;;;;;;;;;;;;18.88;48.66;100236.28;5104697;28;20349;-52
2023/01/13 08:27:41;;;;;;;;;;;;;;;18.87;48.64;100235.47;5109139;27;19967;-53
2023/01/13 08:30:07;;;;;;;;;;;;;;;18.86;48.49;100255.88;5107849;27;19972;-54
2023/01/13 08:32:33;;;;;;;;;;;;;;;18.87;48.46;100246.50;5105349;27;20117;-53
2023/01/13 08:34:58;;;;;;;;;;;;;;;18.86;48.78;100250.34;5110056;27;19934;-53
2023/01/13 08:37:24;;;;;;;;;;;;;;;18.86;48.60;100258.63;5107261;27;19953;-53
2023/01/13 08:39:49;;;;;;;;;;;;;;;18.88;48.26;100261.13;5109386;27;19939;-55
2023/01/13 08:42:15;;;;;;;;;;;;;;;18.88;48.56;100278.50;5110473;27;19931;-52
2023/01/13 08:44:41;;;;;;;;;;;;;;;18.87;48.40;100262.22;5119642;27;19951;-55
2023/01/13 08:47:06;;;;;;;;;;;;;;;18.86;48.26;100282.66;5116371;28;19950;-52
2023/01/13 08:49:32;;;;;;;;;;;;;;;18.87;48.29;100262.22;5128867;28;19930;-51
2023/01/13 08:51:57;;;;;;;;;;;;;;;18.85;48.24;100264.47;5125335;27;19935;-52
2023/01/13 08:54:23;;;;;;;;;;;;;;;18.86;48.36;100266.91;5123749;27;19930;-51
2023/01/13 08:56:49;;;;;;;;;;;;;;;18.85;48.48;100262.50;5111011;27;20204;-52
2023/01/13 08:59:15;;;;;;;;;;;;;;;18.86;48.56;100268.84;5127088;27;19928;-52
2023/01/13 09:01:41;;;;;;;;;;;;;;;18.87;48.28;100262.22;5117761;28;19962;-51
2023/01/13 09:04:08;;;;;;;;;;;;;;;18.86;48.52;100266.91;5107805;27;21293;-54
2023/01/13 09:06:34;;;;;;;;;;;;;;;18.86;48.23;100260.56;5115750;27;19932;-52
2023/01/13 09:09:01;;;;;;;;;;;;;;;18.86;48.45;100266.09;5119165;27;20447;-53
2023/01/13 09:14:17;;;;;;;;;;;;;;;18.86;48.45;100264.16;5100117;27;20011;-53
2023/01/13 09:16:42;;;;;;;;;;;;;;;18.86;48.47;100268.84;5107843;27;19967;-52
2023/01/13 09:19:08;;;;;;;;;;;;;;;18.86;48.40;100275.19;5104373;27;19955;-52
2023/01/13 09:21:34;;;;;;;;;;;;;;;18.86;48.11;100268.84;5110068;27;19931;-52
2023/01/13 09:23:59;;;;;;;;;;;;;;;18.86;48.15;100274.38;5112380;27;19983;-52
2023/01/13 09:26:25;;;;;;;;;;;;;;;18.85;48.40;100273.56;5113863;27;20500;-52
2023/01/13 09:28:50;;;;;;;;;;;;;;;18.86;48.40;100271.59;5114650;27;19927;-52
2023/01/13 09:31:16;;;;;;;;;;;;;;;18.86;48.28;100279.88;5110624;27;19988;-52
2023/01/13 09:36:27;;;;;;;;;;;;;;;18.86;48.31;100286.22;5100137;27;19931;-52
2023/01/13 09:38:53;;;;;;;;;;;;;;;18.86;48.36;100279.88;5119231;27;19927;-53
2023/01/13 09:44:06;;;;;;;;;;;;;;;18.85;47.97;100290.09;5096031;28;19927;-52
2023/01/13 09:46:48;;;;;;;;;;;;;;;18.86;48.21;100301.97;5119633;27;19931;-53
2023/01/13 09:49:22;;;;;;;;;;;;;;;18.86;48.26;100297.25;5114471;27;20274;-52
2023/01/13 09:51:53;;;;;;;;;;;;;;;18.86;47.30;100305.53;5116516;28;20044;-52
2023/01/13 09:54:21;;;;;;;;;;;;;;;18.87;47.42;100303.59;5114638;27;19982;-52
2023/01/13 09:56:47;;;;;;;;;;;;;;;18.85;46.80;100309.41;5111327;28;19959;-52
2023/01/13 09:59:14;;;;;;;;;;;;;;;18.86;47.06;100299.19;5112894;27;19928;-52
2023/01/13 10:04:14;;;;;;;;;;;;;;;18.86;47.82;100304.72;5166970;27;19930;-51
2023/01/13 10:06:41;;;;;;;;;;;;;;;18.87;47.00;100300.84;5142303;27;19974;-52
2023/01/13 10:09:11;;;;;;;;;;;;;;;18.86;47.59;100307.47;5127728;27;19938;-52
2023/01/13 10:14:26;;;;;;;;;;;;;;;18.86;47.53;100313.00;5122624;27;20481;-55
2023/01/13 10:17:11;;;;;;;;;;;;;;;18.85;47.66;100317.69;5142221;27;19930;-54
2023/01/13 10:19:41;;;;;;;;;;;;;;;18.85;46.31;100327.91;5141400;27;20438;-55
2023/01/13 10:22:27;;;;;;;;;;;;;;;18.86;46.99;100313.00;5150429;27;19926;-57
2023/01/13 10:25:03;;;;;;;;;;;;;;;18.84;46.17;100316.06;5128567;27;19966;-59
2023/01/13 10:27:31;;;;;;;;;;;;;;;18.52;43.95;100319.38;5134311;27;19931;-60
2023/01/13 10:29:57;;;;;;;;;;;;;;;18.35;44.51;100307.97;5125206;27;19928;-58
2023/01/13 10:32:22;;;;;;;;;;;;;;;18.40;44.05;100319.78;5146956;27;20303;-61
2023/01/13 10:34:49;;;;;;;;;;;;;;;18.64;45.60;100321.75;5149401;27;19927;-56
2023/01/13 10:37:24;;;;;;;;;;;;;;;18.74;45.33;100305.16;5149511;27;19927;-57
2023/01/13 10:39:50;;;;;;;;;;;;;;;18.58;42.50;100303.63;5129765;27;19927;-62
2023/01/13 10:42:17;;;;;;;;;;;;;;;18.30;43.26;100326.19;5128355;27;19970;-60
2023/01/13 10:44:46;;;;;;;;;;;;;;;18.21;43.59;100316.91;5141493;27;19951;-60
2023/01/13 10:47:17;;;;;;;;;;;;;;;18.22;43.68;100317.72;5114930;27;20496;-59
2023/01/13 10:49:43;;;;;;;;;;;;;;;18.23;45.51;100322.16;5136707;27;19970;-60
2023/01/13 10:52:25;;;;;;;;;;;;;;;18.14;44.60;100326.66;5148147;27;20016;-51
2023/01/13 10:54:51;;;;;;;;;;;;;;;18.24;44.04;100326.56;5136346;27;20018;-59
2023/01/13 10:57:18;;;;;;;;;;;;;;;18.29;44.12;100334.78;5099810;27;19984;-61
2023/01/13 10:59:43;;;;;;;;;;;;;;;18.36;43.71;100332.50;5101025;27;20257;-59
2023/01/13 11:02:19;;;;;;;;;;;;;;;18.27;43.70;100324.03;5122624;27;19932;-60
2023/01/13 11:07:45;;;;;;;;;;;;;;;18.14;43.84;100332.97;5117889;27;19949;-54
2023/01/13 11:10:15;;;;;;;;;;;;;;;18.14;43.82;100356.97;5091628;28;19977;-57
2023/01/13 11:13:01;;;;;;;;;;;;;;;18.50;44.24;100347.25;5092606;27;19963;-52
2023/01/13 11:15:32;;;;;;;;;;;;;;;18.69;43.72;100350.13;5089246;27;19938;-51
2023/01/13 11:18:00;;;;;;;;;;;;;;;18.77;43.51;100337.63;5106176;27;20367;-54
2023/01/13 11:20:31;;;;;;;;;;;;;;;18.82;43.73;100334.81;5108921;27;20375;-54
2023/01/13 11:22:58;;;;;;;;;;;;;;;18.85;43.89;100339.75;5111967;27;19931;-54
2023/01/13 11:25:41;;;;;;;;;;;;;;;18.87;44.32;100350.50;5115268;27;20287;-52
2023/01/13 11:28:27;;;;;;;;;;;;;;;18.88;44.33;100355.75;5108283;27;19954;-55
2023/01/13 11:30:57;;;;;;;;;;;;;;;18.89;44.20;100351.03;5091387;28;19975;-53
2023/01/13 11:33:43;;;;;;;;;;;;;;;18.89;44.09;100346.34;5090117;28;19928;-53
2023/01/13 11:36:11;;;;;;;;;;;;;;;18.91;44.13;100355.16;5096878;28;20018;-53
2023/01/13 11:38:46;;;;;;;;;;;;;;;18.93;44.58;100371.41;5095666;28;19960;-53
2023/01/13 11:41:19;;;;;;;;;;;;;;;18.93;44.52;100365.91;5118771;27;19992;-54
2023/01/13 11:43:46;;;;;;;;;;;;;;;18.94;45.27;100348.22;5097161;28;20018;-53
2023/01/13 11:46:12;;;;;;;;;;;;;;;18.89;44.70;100351.03;5106875;27;19963;-53
2023/01/13 11:48:40;;;;;;;;;;;;;;;18.91;45.61;100355.16;5103876;27;20266;-53
2023/01/13 11:54:07;;;;;;;;;;;;;;;18.94;45.94;100350.97;5159360;27;19946;-53
2023/01/13 11:56:53;;;;;;;;;;;;;;;18.96;46.17;100352.34;5125008;27;20358;-52
2023/01/13 11:59:25;;;;;;;;;;;;;;;18.95;46.24;100345.16;5115780;27;19927;-53
2023/01/13 12:02:11;;;;;;;;;;;;;;;18.95;46.48;100347.91;5126371;27;19989;-51
2023/01/13 12:04:56;;;;;;;;;;;;;;;18.96;46.54;100349.59;5127540;27;19935;-53
2023/01/13 12:07:42;;;;;;;;;;;;;;;18.97;46.32;100337.44;5125143;27;19934;-52
2023/01/13 12:10:09;;;;;;;;;;;;;;;18.98;46.51;100343.75;5121171;27;20435;-53
2023/01/13 12:12:58;;;;;;;;;;;;;;;18.98;46.72;100347.34;5129180;27;20082;-50
2023/01/13 12:15:28;;;;;;;;;;;;;;;18.99;46.67;100348.16;5125919;27;20367;-51
2023/01/13 12:18:05;;;;;;;;;;;;;;;19.00;46.61;100338.78;5141289;27;20376;-53
2023/01/13 12:20:41;;;;;;;;;;;;;;;19.01;46.78;100360.56;5136486;27;20366;-53
2023/01/13 12:23:12;;;;;;;;;;;;;;;19.02;46.62;100375.19;5136036;27;19978;-51
2023/01/13 12:25:39;;;;;;;;;;;;;;;19.01;46.67;100374.34;5133400;27;19930;-53
2023/01/13 12:28:06;;;;;;;;;;;;;;;19.02;46.57;100372.41;5139176;27;19935;-52
2023/01/13 12:30:39;;;;;;;;;;;;;;;19.02;46.91;100387.03;5117793;27;19931;-53
2023/01/13 12:33:11;;;;;;;;;;;;;;;19.03;46.85;100402.47;5125182;27;20274;-53
2023/01/13 12:35:38;;;;;;;;;;;;;;;19.03;46.73;100409.94;5132050;27;20377;-53
2023/01/13 12:38:07;;;;;;;;;;;;;;;19.03;46.82;100408.00;5138427;27;19965;-53
2023/01/13 12:40:42;;;;;;;;;;;;;;;19.04;46.71;100426.22;5131716;27;19955;-52
2023/01/13 12:46:21;;;;;;;;;;;;;;;19.05;46.54;100413.22;5115954;27;19927;-53
2023/01/13 12:51:23;;;;;;;;;;;;;;;19.06;46.65;100420.41;5165354;27;19937;-53
2023/01/13 12:53:48;;;;;;;;;;;;;;;19.05;46.76;100430.63;5135716;27;20333;-53
2023/01/13 12:56:34;;;;;;;;;;;;;;;19.05;46.63;100441.66;5153196;27;19930;-53
2023/01/13 12:59:20;;;;;;;;;;;;;;;19.08;46.47;100433.88;5134362;27;20004;-53
2023/01/13 13:01:46;;;;;;;;;;;;;;;19.07;46.74;100438.59;5148268;27;19989;-52
2023/01/13 13:04:13;;;;;;;;;;;;;;;19.08;46.84;100439.41;5153277;27;19927;-53
2023/01/13 13:06:42;;;;;;;;;;;;;;;19.08;46.71;100450.44;5135702;27;19923;-53
2023/01/13 13:09:28;;;;;;;;;;;;;;;19.07;46.65;100452.38;5152369;27;19927;-53
2023/01/13 13:14:38;;;;;;;;;;;;;;;19.09;46.60;100452.13;5175764;27;19925;-51
2023/01/13 13:17:16;;;;;;;;;;;;;;;19.09;46.65;100458.47;5170509;27;19931;-53
2023/01/13 13:19:42;;;;;;;;;;;;;;;19.09;46.89;100446.59;5156152;27;19926;-52
2023/01/13 13:24:51;;;;;;;;;;;;;;;19.09;46.57;100463.16;5176835;27;19925;-52
2023/01/13 13:27:17;;;;;;;;;;;;;;;19.09;46.86;100454.88;5173978;27;19927;-53
2023/01/13 13:29:45;;;;;;;;;;;;;;;19.09;46.52;100466.72;5165713;27;20548;-54
2023/01/13 13:32:30;;;;;;;;;;;;;;;19.08;46.75;100461.50;5155780;27;19965;-51
2023/01/13 13:35:15;;;;;;;;;;;;;;;19.08;46.73;100454.03;5168498;27;19950;-54
2023/01/13 13:48:55;;;;;;;;;;;;;;;19.09;46.63;100479.72;5145392;27;20298;-52
2023/01/13 13:51:30;;;;;;;;;;;;;;;19.08;46.58;100483.56;5172645;27;20421;-54
2023/01/13 13:53:58;;;;;;;;;;;;;;;19.08;46.88;100491.84;5174241;27;19930;-52
2023/01/13 13:56:25;;;;;;;;;;;;;;;19.08;46.71;100489.91;5161626;27;20342;-52
2023/01/13 13:58:51;;;;;;;;;;;;;;;19.07;46.83;100496.53;5159142;27;19926;-53